Time;durP1;ratioP1;P1;durP2;ratioP2;P2;SDS_P1;SDS_P2;PMS_P1;PMS_P2;Temp;Humidity;BMP_temperature;BMP_pressure;BME280_temperature;BME280_humidity;BME280_pressure;Samples;Min_cycle;Max_cycle;Signal;HPM_P1;HPM_P2
2020/12/12 00:00:14;;;;;;;6.23;5.73;;;7.70;48.00;;;;;;5031278;28;20177;-65
2020/12/12 00:02:39;;;;;;;6.87;6.17;;;7.70;46.70;;;;;;5031165;28;20435;-66
2020/12/12 00:05:05;;;;;;;8.47;6.80;;;7.70;48.20;;;;;;5031371;28;20421;-66
2020/12/12 00:07:31;;;;;;;8.37;7.47;;;7.80;48.10;;;;;;5031373;28;20194;-66
2020/12/12 00:09:57;;;;;;;6.47;5.77;;;7.70;47.20;;;;;;5030180;28;20438;-65
2020/12/12 00:12:22;;;;;;;6.67;6.07;;;7.60;47.90;;;;;;5030860;28;20461;-65
2020/12/12 00:14:48;;;;;;;6.87;6.20;;;7.50;47.90;;;;;;5031206;28;20208;-64
2020/12/12 00:17:13;;;;;;;6.50;6.00;;;7.50;47.30;;;;;;5030965;28;20202;-66
2020/12/12 00:19:39;;;;;;;6.60;6.10;;;7.30;48.10;;;;;;5030295;28;20181;-65
2020/12/12 00:22:04;;;;;;;7.17;6.47;;;7.20;49.00;;;;;;5030826;28;20246;-64
2020/12/12 00:24:30;;;;;;;8.23;7.40;;;7.30;49.30;;;;;;5030914;28;20222;-65
2020/12/12 00:26:57;;;;;;;6.23;5.63;;;7.30;49.40;;;;;;5030923;28;20191;-64
2020/12/12 00:29:22;;;;;;;6.03;5.53;;;7.30;48.60;;;;;;5030681;28;20181;-65
2020/12/12 00:31:55;;;;;;;5.37;4.97;;;7.30;48.60;;;;;;5030698;28;20450;-66
2020/12/12 00:34:21;;;;;;;7.30;6.40;;;7.30;48.70;;;;;;5029267;28;20329;-64
2020/12/12 00:36:49;;;;;;;6.30;5.77;;;7.20;49.00;;;;;;5030797;28;20502;-65
2020/12/12 00:39:15;;;;;;;6.60;6.00;;;7.30;48.80;;;;;;5030508;28;20416;-65
2020/12/12 00:41:40;;;;;;;5.90;5.30;;;7.30;49.30;;;;;;5030720;28;20426;-66
2020/12/12 00:44:06;;;;;;;5.70;5.20;;;7.40;49.00;;;;;;5030360;28;20407;-65
2020/12/12 00:46:33;;;;;;;6.10;5.50;;;7.40;48.20;;;;;;5030488;28;20251;-65
2020/12/12 00:48:59;;;;;;;6.23;5.63;;;7.30;48.00;;;;;;5030176;28;20443;-66
2020/12/12 00:51:25;;;;;;;5.50;5.10;;;7.50;49.00;;;;;;5030086;28;20601;-65
2020/12/12 00:53:51;;;;;;;6.53;5.87;;;7.60;49.70;;;;;;5030374;28;20226;-65
2020/12/12 00:56:17;;;;;;;5.57;5.07;;;7.80;47.70;;;;;;5030373;28;21063;-66
2020/12/12 00:58:43;;;;;;;5.40;5.00;;;7.90;47.50;;;;;;5029402;28;20639;-66
2020/12/12 01:01:09;;;;;;;6.10;5.60;;;7.90;47.30;;;;;;5030024;28;20416;-66
2020/12/12 01:03:35;;;;;;;5.57;5.10;;;8.00;47.30;;;;;;5030081;28;21124;-66
2020/12/12 01:06:01;;;;;;;4.97;4.47;;;8.00;46.80;;;;;;5029881;28;20454;-65
2020/12/12 01:08:26;;;;;;;5.93;5.47;;;7.90;45.70;;;;;;5028556;28;21015;-65
2020/12/12 01:10:52;;;;;;;6.17;5.67;;;8.00;46.40;;;;;;5030024;28;20933;-66
2020/12/12 01:13:17;;;;;;;6.43;5.93;;;8.00;46.30;;;;;;5029453;28;20725;-64
2020/12/12 01:15:44;;;;;;;5.23;4.83;;;8.00;45.90;;;;;;5029903;28;20184;-65
2020/12/12 01:18:10;;;;;;;5.80;5.33;;;7.90;46.30;;;;;;5029639;28;20559;-64
2020/12/12 01:20:36;;;;;;;5.03;4.67;;;7.90;46.60;;;;;;5029616;28;20443;-65
2020/12/12 01:23:01;;;;;;;5.70;5.23;;;8.00;46.40;;;;;;5029549;28;20259;-64
2020/12/12 01:25:27;;;;;;;6.60;5.93;;;7.90;46.60;;;;;;5029637;28;20435;-65
2020/12/12 01:27:52;;;;;;;4.70;4.30;;;7.90;46.30;;;;;;5029165;28;20612;-65
2020/12/12 01:30:18;;;;;;;5.43;4.93;;;7.70;46.70;;;;;;5029619;28;20168;-65
2020/12/12 01:32:44;;;;;;;6.20;5.60;;;7.70;47.20;;;;;;5028911;28;20552;-66
2020/12/12 01:35:09;;;;;;;5.00;4.60;;;7.70;46.60;;;;;;5029264;28;20239;-65
2020/12/12 01:37:35;;;;;;;7.70;6.97;;;7.80;46.90;;;;;;5029289;28;20180;-65
2020/12/12 01:40:00;;;;;;;7.07;6.37;;;7.80;47.50;;;;;;5029458;28;20168;-65
2020/12/12 01:42:26;;;;;;;6.63;6.03;;;7.90;48.30;;;;;;5029167;28;20223;-66
2020/12/12 01:44:56;;;;;;;7.20;6.53;;;7.90;47.70;;;;;;5029228;28;20181;-65
2020/12/12 01:47:22;;;;;;;6.23;5.63;;;8.00;48.70;;;;;;5029151;28;20211;-66
2020/12/12 01:49:50;;;;;;;5.53;5.13;;;8.00;48.60;;;;;;5029068;28;20426;-65
2020/12/12 01:52:16;;;;;;;3.60;3.40;;;7.90;46.80;;;;;;5029230;28;20461;-66
2020/12/12 01:54:45;;;;;;;4.60;4.13;;;7.80;46.70;;;;;;5029053;28;20459;-67
2020/12/12 01:57:12;;;;;;;5.23;4.80;;;7.70;47.10;;;;;;5028676;28;20191;-65
2020/12/12 01:59:37;;;;;;;5.53;5.13;;;7.70;47.20;;;;;;5029288;28;20416;-66
2020/12/12 02:02:06;;;;;;;5.23;4.73;;;7.70;48.30;;;;;;5029062;28;20431;-66
2020/12/12 02:04:35;;;;;;;5.23;4.87;;;7.80;48.50;;;;;;5029049;28;20188;-66
2020/12/12 02:07:00;;;;;;;6.37;5.87;;;8.00;48.10;;;;;;5028975;28;20465;-66
2020/12/12 02:09:26;;;;;;;6.07;5.57;;;8.00;47.70;;;;;;5028987;28;20412;-65
2020/12/12 02:11:52;;;;;;;5.87;5.30;;;8.10;48.30;;;;;;5028809;28;20199;-66
2020/12/12 02:14:17;;;;;;;5.77;5.23;;;8.00;46.80;;;;;;5028911;28;20200;-65
2020/12/12 02:16:53;;;;;;;6.00;5.50;;;8.00;47.50;;;;;;5028875;28;20458;-65
2020/12/12 02:19:19;;;;;;;6.03;5.53;;;8.20;48.80;;;;;;5028397;28;20187;-65
2020/12/12 02:21:55;;;;;;;5.73;4.87;;;8.10;47.50;;;;;;5028835;28;20403;-66
2020/12/12 02:24:21;;;;;;;5.80;5.20;;;8.10;47.90;;;;;;5028655;28;20449;-65
2020/12/12 02:26:47;;;;;;;6.17;5.67;;;8.20;47.70;;;;;;5028534;28;20415;-66
2020/12/12 02:29:13;;;;;;;5.80;5.30;;;8.20;46.90;;;;;;5028543;28;20415;-65
2020/12/12 02:31:39;;;;;;;5.07;4.67;;;8.30;48.40;;;;;;5028799;28;20914;-65
2020/12/12 02:34:05;;;;;;;5.00;4.60;;;8.30;47.80;;;;;;5028338;28;20202;-65
2020/12/12 02:36:40;;;;;;;5.27;4.80;;;8.30;46.60;;;;;;5028532;28;20423;-64
2020/12/12 02:39:08;;;;;;;6.00;5.40;;;8.30;47.30;;;;;;5028405;28;20468;-66
2020/12/12 02:41:34;;;;;;;5.97;5.47;;;8.30;46.40;;;;;;5028192;28;20399;-64
2020/12/12 02:44:00;;;;;;;5.33;4.83;;;8.30;47.30;;;;;;5031869;28;20561;-65
2020/12/12 02:46:26;;;;;;;5.43;4.93;;;8.20;46.00;;;;;;5032675;28;20458;-65
2020/12/12 02:48:52;;;;;;;6.63;6.03;;;8.10;45.30;;;;;;5032054;28;20846;-65
2020/12/12 02:51:18;;;;;;;5.90;5.40;;;8.20;46.50;;;;;;5032286;28;20411;-65
2020/12/12 02:53:47;;;;;;;6.27;5.70;;;8.10;45.50;;;;;;5032435;28;20208;-65
2020/12/12 02:56:14;;;;;;;5.70;5.20;;;8.20;45.80;;;;;;5030855;28;20416;-64
2020/12/12 02:58:40;;;;;;;4.83;4.43;;;8.20;46.80;;;;;;5032036;28;20461;-65
2020/12/12 03:01:05;;;;;;;5.07;4.77;;;8.20;47.60;;;;;;5032291;28;20907;-66
2020/12/12 03:03:31;;;;;;;5.87;5.37;;;8.20;46.00;;;;;;5032006;28;20197;-66
2020/12/12 03:05:57;;;;;;;5.23;4.83;;;8.10;45.90;;;;;;5032152;28;20177;-66
2020/12/12 03:08:22;;;;;;;5.80;5.40;;;7.90;45.40;;;;;;5030888;28;20545;-64
2020/12/12 03:10:48;;;;;;;6.03;5.47;;;7.80;45.80;;;;;;5031963;28;20255;-66
2020/12/12 03:13:13;;;;;;;4.57;4.23;;;7.80;46.00;;;;;;5031945;28;20279;-66
2020/12/12 03:15:39;;;;;;;5.10;4.70;;;7.50;46.50;;;;;;5032110;28;20250;-65
2020/12/12 03:18:04;;;;;;;5.13;4.63;;;7.60;47.00;;;;;;5031587;28;20860;-66
2020/12/12 03:20:30;;;;;;;5.87;5.37;;;7.50;47.30;;;;;;5032011;28;20175;-66
2020/12/12 03:22:55;;;;;;;5.53;5.13;;;7.40;47.00;;;;;;5031831;28;20296;-67
2020/12/12 03:25:21;;;;;;;4.67;4.30;;;7.20;48.20;;;;;;5031563;28;20268;-64
2020/12/12 03:27:46;;;;;;;5.27;4.87;;;7.30;48.40;;;;;;5031797;28;20260;-65
2020/12/12 03:30:12;;;;;;;6.07;5.47;;;7.30;47.90;;;;;;5030689;28;20177;-67
2020/12/12 03:32:37;;;;;;;5.70;5.20;;;7.50;47.40;;;;;;5031670;28;20218;-66
2020/12/12 03:35:03;;;;;;;7.27;6.20;;;7.50;47.70;;;;;;5031584;28;20207;-66
2020/12/12 03:37:28;;;;;;;5.30;4.80;;;7.50;47.10;;;;;;5031401;28;20173;-64
2020/12/12 03:39:54;;;;;;;6.30;5.70;;;7.30;47.40;;;;;;5031389;28;20189;-65
2020/12/12 03:42:20;;;;;;;6.10;5.60;;;7.20;48.00;;;;;;5031668;28;20196;-65
2020/12/12 03:44:45;;;;;;;6.90;6.20;;;7.30;48.10;;;;;;5031644;28;20705;-64
2020/12/12 03:47:11;;;;;;;6.60;6.10;;;7.40;48.30;;;;;;5031115;28;20475;-65
2020/12/12 03:49:37;;;;;;;7.00;6.30;;;7.50;47.40;;;;;;5031512;28;20677;-66
2020/12/12 03:52:02;;;;;;;5.30;4.90;;;7.50;48.20;;;;;;5031456;28;20193;-66
2020/12/12 03:54:28;;;;;;;6.13;5.63;;;7.20;47.70;;;;;;5030081;28;20211;-65
2020/12/12 03:56:54;;;;;;;6.10;5.60;;;7.10;48.30;;;;;;5031385;28;20200;-64
2020/12/12 03:59:20;;;;;;;6.50;6.00;;;7.10;48.50;;;;;;5031319;28;20230;-65
2020/12/12 04:01:46;;;;;;;5.80;5.30;;;7.20;48.70;;;;;;5031113;28;20441;-66
2020/12/12 04:04:11;;;;;;;6.50;5.93;;;7.30;48.40;;;;;;5031435;28;20490;-66
2020/12/12 04:06:37;;;;;;;5.80;5.30;;;7.30;48.10;;;;;;5031542;28;20242;-66
2020/12/12 04:09:03;;;;;;;6.90;6.27;;;7.40;47.60;;;;;;5030900;28;20176;-66
2020/12/12 04:11:28;;;;;;;6.83;6.23;;;7.30;47.40;;;;;;5031127;28;20681;-65
2020/12/12 04:13:54;;;;;;;6.27;5.77;;;7.30;48.00;;;;;;5031081;28;20204;-64
2020/12/12 04:16:19;;;;;;;6.27;5.80;;;7.20;47.90;;;;;;5031025;28;20180;-64
2020/12/12 04:18:45;;;;;;;6.10;5.60;;;7.40;47.20;;;;;;5030766;28;20176;-65
2020/12/12 04:21:11;;;;;;;6.43;5.93;;;7.40;47.70;;;;;;5031010;28;20169;-64
2020/12/12 04:23:36;;;;;;;6.27;5.67;;;7.50;47.10;;;;;;5030675;28;20443;-64
2020/12/12 04:26:03;;;;;;;6.70;6.20;;;7.50;47.40;;;;;;5030366;28;20169;-65
2020/12/12 04:28:29;;;;;;;6.17;5.77;;;7.30;47.20;;;;;;5030634;28;20169;-65
2020/12/12 04:30:55;;;;;;;6.63;6.13;;;7.40;47.40;;;;;;5030701;28;20560;-65
2020/12/12 04:33:20;;;;;;;6.93;6.23;;;7.40;47.30;;;;;;5030353;28;20909;-65
2020/12/12 04:35:46;;;;;;;6.10;5.60;;;7.40;47.00;;;;;;5030645;28;20605;-66
2020/12/12 04:38:11;;;;;;;6.07;5.57;;;7.50;47.10;;;;;;5030266;28;20169;-66
2020/12/12 04:40:37;;;;;;;5.73;5.23;;;7.50;47.30;;;;;;5030281;28;20165;-66
2020/12/12 04:43:03;;;;;;;7.07;6.30;;;7.50;46.70;;;;;;5030466;28;20200;-65
2020/12/12 04:45:30;;;;;;;6.20;5.70;;;7.40;47.30;;;;;;5030535;28;20608;-65
2020/12/12 04:47:56;;;;;;;7.07;6.37;;;7.40;47.60;;;;;;5029957;28;20175;-65
2020/12/12 04:50:28;;;;;;;6.30;5.70;;;7.40;47.60;;;;;;5030515;28;20417;-65
2020/12/12 04:52:57;;;;;;;5.57;5.07;;;7.60;47.60;;;;;;5030157;28;20937;-64
2020/12/12 04:55:24;;;;;;;6.27;5.67;;;7.50;46.90;;;;;;5029752;28;20957;-65
2020/12/12 04:57:52;;;;;;;6.43;5.83;;;7.50;47.20;;;;;;5029990;28;20403;-65
2020/12/12 05:00:19;;;;;;;7.10;6.37;;;7.60;46.70;;;;;;5047412;28;20423;-65
2020/12/12 05:02:47;;;;;;;6.83;6.17;;;7.50;47.00;;;;;;5049579;28;20951;-65
2020/12/12 05:05:12;;;;;;;6.77;6.17;;;7.50;47.60;;;;;;5049902;28;20493;-65
2020/12/12 05:07:38;;;;;;;6.77;6.03;;;7.60;47.00;;;;;;5049603;28;20510;-65
2020/12/12 05:10:04;;;;;;;5.97;5.50;;;7.80;46.50;;;;;;5049637;28;20748;-65
2020/12/12 05:12:31;;;;;;;6.90;6.30;;;7.90;46.20;;;;;;5048597;28;20254;-65
2020/12/12 05:14:57;;;;;;;6.50;5.97;;;7.70;47.00;;;;;;5049570;28;20477;-65
2020/12/12 05:17:22;;;;;;;6.50;5.90;;;7.90;46.50;;;;;;5049324;28;20415;-65
2020/12/12 05:19:49;;;;;;;5.93;5.43;;;7.90;46.70;;;;;;5049953;28;20611;-65
2020/12/12 05:22:15;;;;;;;6.00;5.40;;;7.70;46.80;;;;;;5049561;28;20220;-64
2020/12/12 05:24:41;;;;;;;5.70;5.20;;;7.70;47.10;;;;;;5049349;28;20410;-65
2020/12/12 05:27:06;;;;;;;6.40;5.90;;;7.60;48.10;;;;;;5049328;28;20405;-66
2020/12/12 05:29:32;;;;;;;6.07;5.57;;;7.60;48.30;;;;;;5049402;28;20178;-66
2020/12/12 05:31:57;;;;;;;5.70;5.30;;;7.50;48.20;;;;;;5047985;28;20196;-65
2020/12/12 05:34:25;;;;;;;6.30;5.80;;;7.60;48.50;;;;;;5049310;28;20222;-66
2020/12/12 05:36:53;;;;;;;5.70;5.20;;;7.40;49.30;;;;;;5049348;28;20176;-65
2020/12/12 05:39:19;;;;;;;6.07;5.63;;;7.50;48.70;;;;;;5048911;28;20414;-65
2020/12/12 05:41:46;;;;;;;5.20;4.80;;;7.50;48.70;;;;;;5049274;28;20424;-65
2020/12/12 05:44:12;;;;;;;6.27;5.70;;;7.20;49.80;;;;;;5049318;28;20417;-66
2020/12/12 05:46:38;;;;;;;6.07;5.57;;;7.30;50.10;;;;;;5049059;28;20893;-65
2020/12/12 05:49:04;;;;;;;5.43;5.03;;;7.50;49.80;;;;;;5048950;28;20215;-65
2020/12/12 05:51:31;;;;;;;6.37;5.87;;;7.50;49.60;;;;;;5049099;28;20437;-65
2020/12/12 05:53:58;;;;;;;5.50;5.00;;;7.40;49.70;;;;;;5048753;28;20718;-66
2020/12/12 05:56:24;;;;;;;6.30;5.67;;;7.40;50.10;;;;;;5048997;28;20422;-66
2020/12/12 05:58:51;;;;;;;5.10;4.60;;;7.40;49.50;;;;;;5048558;28;20988;-65
2020/12/12 06:01:29;;;;;;;4.93;4.57;;;7.40;49.70;;;;;;5049047;28;20418;-65
2020/12/12 06:04:03;;;;;;;5.43;4.93;;;7.50;49.80;;;;;;5049068;28;20471;-65
2020/12/12 06:06:28;;;;;;;5.63;5.20;;;7.60;49.70;;;;;;5049028;28;20467;-65
2020/12/12 06:09:15;;;;;;;4.50;4.20;;;7.50;49.10;;;;;;5048506;28;20932;-66
2020/12/12 06:11:43;;;;;;;5.93;5.30;;;7.60;50.00;;;;;;5048760;28;20205;-66
2020/12/12 06:14:09;;;;;;;5.83;5.30;;;7.60;49.40;;;;;;5048768;28;20442;-66
2020/12/12 06:16:35;;;;;;;6.07;5.57;;;7.70;50.00;;;;;;5048549;28;20415;-66
2020/12/12 06:19:05;;;;;;;5.00;4.60;;;7.50;50.30;;;;;;5048237;28;20172;-66
2020/12/12 06:24:59;;;;;;;4.77;4.37;;;7.80;50.00;;;;;;5048535;28;20479;-66
2020/12/12 06:27:32;;;;;;;5.10;4.70;;;7.60;50.30;;;;;;5048448;28;20881;-65
2020/12/12 06:30:01;;;;;;;4.33;4.03;;;7.70;50.50;;;;;;5048337;28;20413;-65
2020/12/12 06:32:27;;;;;;;5.03;4.63;;;7.50;50.30;;;;;;5048746;28;20422;-65
2020/12/12 06:34:53;;;;;;;5.63;5.10;;;7.80;50.50;;;;;;5048512;28;20465;-65
2020/12/12 06:37:28;;;;;;;4.90;4.50;;;7.80;49.60;;;;;;5048052;28;20175;-66
2020/12/12 06:39:53;;;;;;;4.80;4.50;;;8.00;49.30;;;;;;5048370;28;20405;-65
2020/12/12 06:42:31;;;;;;;4.97;4.63;;;8.20;49.50;;;;;;5048359;28;20434;-66
2020/12/12 06:44:57;;;;;;;5.40;4.90;;;8.30;48.50;;;;;;5048176;28;20602;-66
2020/12/12 06:47:41;;;;;;;6.07;5.57;;;8.20;49.00;;;;;;5048338;28;20789;-65
2020/12/12 06:50:16;;;;;;;5.90;5.40;;;8.40;50.50;;;;;;5048284;28;20501;-66
2020/12/12 06:52:43;;;;;;;6.27;5.70;;;8.60;48.70;;;;;;5047974;28;20426;-66
2020/12/12 06:55:13;;;;;;;5.57;5.23;;;8.70;47.70;;;;;;5048296;28;20465;-65
2020/12/12 06:57:41;;;;;;;5.33;4.97;;;8.80;48.30;;;;;;5048063;28;20486;-66
2020/12/12 07:00:17;;;;;;;4.70;4.40;;;8.80;48.20;;;;;;5047954;28;20461;-65
2020/12/12 07:02:56;;;;;;;5.30;4.90;;;9.00;48.00;;;;;;5047349;28;20461;-66
2020/12/12 07:05:24;;;;;;;5.30;4.80;;;9.00;46.80;;;;;;5047814;28;20423;-65
2020/12/12 07:07:49;;;;;;;4.73;4.37;;;9.00;45.80;;;;;;5046328;28;20525;-66
2020/12/12 07:10:15;;;;;;;5.40;4.90;;;9.10;46.70;;;;;;5048263;28;20411;-65
2020/12/12 07:12:41;;;;;;;5.10;4.70;;;8.90;44.60;;;;;;5048128;28;20210;-65
2020/12/12 07:15:07;;;;;;;5.03;4.73;;;8.90;45.20;;;;;;5047946;28;20455;-64
2020/12/12 07:17:33;;;;;;;4.57;4.27;;;8.70;45.80;;;;;;5046660;28;20172;-65
2020/12/12 07:20:00;;;;;;;5.73;5.23;;;8.70;46.00;;;;;;5048137;28;20455;-66
2020/12/12 07:22:28;;;;;;;5.13;4.73;;;8.80;46.50;;;;;;5047582;28;21152;-66
2020/12/12 07:24:55;;;;;;;5.50;5.10;;;8.90;46.80;;;;;;5048225;28;20417;-66
2020/12/12 07:27:21;;;;;;;5.17;4.77;;;9.00;45.80;;;;;;5047878;28;20399;-65
2020/12/12 07:29:46;;;;;;;6.17;5.57;;;9.00;45.70;;;;;;5048877;28;20417;-66
2020/12/12 07:32:13;;;;;;;4.77;4.37;;;8.80;45.30;;;;;;5050647;28;20267;-66
2020/12/12 07:34:39;;;;;;;4.70;4.30;;;8.80;45.20;;;;;;5050542;28;20690;-66
2020/12/12 07:37:07;;;;;;;5.27;4.80;;;8.60;45.60;;;;;;5051219;28;20445;-66
2020/12/12 07:39:34;;;;;;;5.30;4.90;;;8.60;46.50;;;;;;5051537;28;20164;-66
2020/12/12 07:42:01;;;;;;;5.30;4.80;;;8.80;46.90;;;;;;5051467;28;20429;-66
2020/12/12 07:44:30;;;;;;;5.50;5.00;;;8.80;46.50;;;;;;5051207;28;20823;-65
2020/12/12 07:47:05;;;;;;;6.47;5.90;;;8.90;46.20;;;;;;5051607;28;20414;-66
2020/12/12 07:49:37;;;;;;;5.67;5.17;;;9.00;45.40;;;;;;5050386;28;20442;-66
2020/12/12 07:52:09;;;;;;;4.57;4.07;;;8.80;45.10;;;;;;5051056;28;20522;-66
2020/12/12 07:54:46;;;;;;;4.43;4.13;;;8.90;45.00;;;;;;5051380;28;20484;-66
2020/12/12 07:57:14;;;;;;;6.87;6.27;;;9.00;45.70;;;;;;5051151;28;20406;-65
2020/12/12 07:59:41;;;;;;;5.03;4.67;;;9.00;44.40;;;;;;5050835;28;20779;-67
2020/12/12 08:02:07;;;;;;;5.07;4.67;;;8.80;45.10;;;;;;5051209;28;20435;-64
2020/12/12 08:04:34;;;;;;;5.23;4.83;;;8.80;45.30;;;;;;5051268;28;20409;-65
2020/12/12 08:07:20;;;;;;;5.27;4.83;;;8.90;46.60;;;;;;5048696;28;20415;-64
2020/12/12 08:09:51;;;;;;;5.60;5.20;;;8.80;45.40;;;;;;5049926;28;20422;-65
2020/12/12 08:12:29;;;;;;;5.17;4.77;;;8.70;44.90;;;;;;5050740;28;20430;-65
2020/12/12 08:14:56;;;;;;;5.83;5.33;;;8.70;45.00;;;;;;5050539;28;20466;-65
2020/12/12 08:17:25;;;;;;;5.10;4.70;;;8.80;45.10;;;;;;5050487;28;20445;-64
2020/12/12 08:19:51;;;;;;;4.80;4.40;;;9.00;45.60;;;;;;5050731;28;20414;-65
2020/12/12 08:22:20;;;;;;;5.43;5.03;;;8.70;45.20;;;;;;5050308;28;20422;-65
2020/12/12 08:24:47;;;;;;;5.53;5.13;;;8.90;45.00;;;;;;5050733;28;20188;-65
2020/12/12 08:27:21;;;;;;;5.27;4.57;;;8.90;45.10;;;;;;5050489;28;20925;-65
2020/12/12 08:29:50;;;;;;;5.40;4.90;;;9.00;46.10;;;;;;5050434;28;20975;-64
2020/12/12 08:32:34;;;;;;;5.47;5.07;;;9.10;46.10;;;;;;5050557;28;20484;-64
2020/12/12 08:35:24;;;;;;;5.17;4.70;;;9.20;46.10;;;;;;5050468;28;20461;-64
2020/12/12 08:38:04;;;;;;;5.53;5.03;;;9.30;46.40;;;;;;5050503;28;20413;-66
2020/12/12 08:40:42;;;;;;;5.03;4.60;;;9.20;44.70;;;;;;5049974;28;20418;-65
2020/12/12 08:43:09;;;;;;;5.27;4.77;;;9.10;45.50;;;;;;5050167;28;20946;-66
2020/12/12 08:45:36;;;;;;;5.00;4.60;;;9.10;44.80;;;;;;5050005;28;20422;-65
2020/12/12 08:48:11;;;;;;;4.40;4.10;;;9.10;44.30;;;;;;5050203;28;20480;-66
2020/12/12 08:50:54;;;;;;;5.47;5.07;;;9.10;44.90;;;;;;5049916;28;20719;-66
2020/12/12 08:53:33;;;;;;;5.50;5.00;;;9.20;46.00;;;;;;5050149;28;20442;-66
2020/12/12 08:56:15;;;;;;;7.30;5.03;;;9.00;45.60;;;;;;5049974;28;20611;-66
2020/12/12 08:58:43;;;;;;;6.20;5.60;;;9.00;46.60;;;;;;5049764;28;20413;-66
2020/12/12 09:01:28;;;;;;;5.27;4.87;;;9.20;45.60;;;;;;5049975;28;20921;-67
2020/12/12 09:03:59;;;;;;;5.30;4.90;;;9.20;45.10;;;;;;5049943;28;20410;-66
2020/12/12 09:06:26;;;;;;;5.57;5.10;;;9.30;46.60;;;;;;5049586;28;20399;-66
2020/12/12 09:09:24;;;;;;;4.73;4.33;;;9.20;45.40;;;;;;5049780;28;20429;-65
2020/12/12 09:12:16;;;;;;;5.93;4.57;;;9.40;45.70;;;;;;5049750;28;20465;-66
2020/12/12 09:14:44;;;;;;;5.20;4.80;;;9.60;46.90;;;;;;5048327;28;20506;-65
2020/12/12 09:17:14;;;;;;;4.73;4.43;;;9.50;46.00;;;;;;5049446;28;20417;-66
2020/12/12 09:19:40;;;;;;;5.27;4.87;;;9.60;46.00;;;;;;5049737;28;20489;-65
2020/12/12 09:22:07;;;;;;;6.90;6.30;;;9.60;45.40;;;;;;5049199;28;20525;-65
2020/12/12 09:24:32;;;;;;;4.90;4.60;;;9.60;45.40;;;;;;5049390;28;20207;-66
2020/12/12 09:26:59;;;;;;;4.50;4.20;;;9.50;44.70;;;;;;5049397;28;20905;-66
2020/12/12 09:29:25;;;;;;;5.17;4.67;;;9.50;45.00;;;;;;5049019;28;20229;-66
2020/12/12 09:31:52;;;;;;;5.17;4.77;;;9.40;44.00;;;;;;5049510;28;20442;-66
2020/12/12 09:34:18;;;;;;;5.00;4.60;;;9.30;45.00;;;;;;5049083;28;20508;-65
2020/12/12 09:36:44;;;;;;;4.80;4.40;;;9.40;44.80;;;;;;5048912;28;20430;-65
2020/12/12 09:39:10;;;;;;;5.50;4.87;;;9.30;44.70;;;;;;5047799;28;20410;-66
2020/12/12 09:41:35;;;;;;;5.33;4.83;;;9.30;45.10;;;;;;5049145;28;20407;-65
2020/12/12 09:44:01;;;;;;;5.93;5.47;;;9.40;44.60;;;;;;5048883;28;20427;-66
2020/12/12 09:46:26;;;;;;;4.40;4.10;;;9.20;46.10;;;;;;5049337;28;20180;-66
2020/12/12 09:48:52;;;;;;;5.00;4.60;;;9.00;45.70;;;;;;5048816;28;20179;-64
2020/12/12 09:51:18;;;;;;;5.20;4.80;;;9.10;46.20;;;;;;5048900;28;20190;-66
2020/12/12 09:53:45;;;;;;;4.30;3.90;;;9.30;45.60;;;;;;5048314;28;20231;-66
2020/12/12 09:56:12;;;;;;;5.70;5.20;;;9.30;45.20;;;;;;5048891;28;20225;-66
2020/12/12 09:58:37;;;;;;;5.40;5.00;;;9.30;45.60;;;;;;5048837;28;20422;-66
2020/12/12 10:01:05;;;;;;;5.30;4.80;;;9.30;45.50;;;;;;5048997;28;20460;-66
2020/12/12 10:03:31;;;;;;;5.50;5.00;;;9.30;45.20;;;;;;5049068;28;20215;-65
2020/12/12 10:05:56;;;;;;;4.50;4.20;;;9.40;45.40;;;;;;5048538;28;20437;-66
2020/12/12 10:08:22;;;;;;;4.80;4.40;;;9.70;51.60;;;;;;5048616;28;20194;-66
2020/12/12 10:10:48;;;;;;;4.90;4.10;;;10.30;47.80;;;;;;5048443;28;20807;-66
2020/12/12 10:13:13;;;;;;;4.90;4.50;;;10.40;45.80;;;;;;5048510;28;20253;-66
2020/12/12 10:15:39;;;;;;;5.40;4.70;;;11.00;42.50;;;;;;5048576;28;20210;-66
2020/12/12 10:18:08;;;;;;;6.00;5.43;;;10.60;44.80;;;;;;5048284;28;20180;-66
2020/12/12 10:20:33;;;;;;;4.80;4.40;;;10.50;43.00;;;;;;5048295;28;20175;-66
2020/12/12 10:22:59;;;;;;;5.37;4.90;;;11.20;45.80;;;;;;5048493;28;20461;-66
2020/12/12 10:25:24;;;;;;;4.20;3.90;;;11.20;40.70;;;;;;5048472;28;20740;-66
2020/12/12 10:27:50;;;;;;;4.37;4.07;;;11.40;43.50;;;;;;5048156;28;20202;-65
2020/12/12 10:30:16;;;;;;;4.80;4.50;;;11.80;46.00;;;;;;5048490;28;20179;-65
2020/12/12 10:32:42;;;;;;;4.77;4.37;;;11.50;38.50;;;;;;5048538;28;20199;-65
2020/12/12 10:35:09;;;;;;;4.83;4.47;;;11.30;40.80;;;;;;5048419;28;20268;-65
2020/12/12 10:37:35;;;;;;;4.60;4.30;;;10.80;40.30;;;;;;5048383;28;20913;-65
2020/12/12 10:40:09;;;;;;;10.40;3.93;;;11.10;42.10;;;;;;5048312;28;20465;-64
2020/12/12 10:42:35;;;;;;;4.37;3.97;;;10.80;40.20;;;;;;5037189;28;20296;-65
2020/12/12 10:45:01;;;;;;;3.90;3.60;;;10.50;40.80;;;;;;5028635;28;20557;-65
2020/12/12 10:47:26;;;;;;;3.67;3.47;;;10.40;42.00;;;;;;5027173;28;20185;-65
2020/12/12 10:49:52;;;;;;;3.50;3.30;;;10.10;41.90;;;;;;5027068;28;20665;-65
2020/12/12 10:52:18;;;;;;;4.27;3.97;;;10.00;43.10;;;;;;5028503;28;20204;-64
2020/12/12 10:54:46;;;;;;;3.37;3.10;;;9.60;45.30;;;;;;5028288;28;20467;-64
2020/12/12 10:57:12;;;;;;;3.50;3.30;;;9.70;45.30;;;;;;5028082;28;20183;-64
2020/12/12 10:59:42;;;;;;;4.80;3.40;;;9.70;45.90;;;;;;5028279;28;20419;-65
2020/12/12 11:02:08;;;;;;;3.37;3.17;;;9.60;45.50;;;;;;5028381;28;20857;-65
2020/12/12 11:04:35;;;;;;;3.30;3.10;;;9.50;45.60;;;;;;5030739;28;20415;-64
2020/12/12 11:07:00;;;;;;;3.70;3.40;;;9.60;45.50;;;;;;5032178;28;20419;-65
2020/12/12 11:09:26;;;;;;;2.80;2.60;;;9.50;45.90;;;;;;5032219;28;20422;-65
2020/12/12 11:11:51;;;;;;;3.60;3.40;;;9.60;45.40;;;;;;5031865;28;20192;-65
2020/12/12 11:14:17;;;;;;;2.90;2.67;;;9.70;45.30;;;;;;5032324;28;20284;-65
2020/12/12 11:16:42;;;;;;;3.10;2.83;;;9.60;45.10;;;;;;5031651;28;20260;-65
2020/12/12 11:19:08;;;;;;;3.50;3.30;;;9.60;45.80;;;;;;5031868;28;20244;-65
2020/12/12 11:21:33;;;;;;;2.93;2.73;;;9.80;45.40;;;;;;5032025;28;20173;-65
2020/12/12 11:23:59;;;;;;;2.60;2.50;;;9.70;45.60;;;;;;5031828;28;20185;-65
2020/12/12 11:26:26;;;;;;;3.53;3.20;;;9.70;46.00;;;;;;5032058;28;20186;-65
2020/12/12 11:28:52;;;;;;;3.90;3.60;;;9.70;46.10;;;;;;5031764;28;20169;-65
2020/12/12 11:31:22;;;;;;;3.10;2.90;;;9.70;46.50;;;;;;5049444;28;20438;-65
2020/12/12 11:33:57;;;;;;;3.63;3.33;;;9.60;46.70;;;;;;5051435;28;20808;-65
2020/12/12 11:48:47;;;;;;;2.53;2.33;;;9.90;47.10;;;;;;5051345;28;20440;-67
2020/12/12 11:51:13;;;;;;;3.20;3.00;;;9.50;46.90;;;;;;5051784;28;20491;-68
2020/12/12 11:53:38;;;;;;;3.03;2.83;;;9.70;48.40;;;;;;5051509;28;20574;-67
2020/12/12 11:56:04;;;;;;;3.03;2.83;;;9.80;47.60;;;;;;5051337;28;20238;-67
2020/12/12 11:58:30;;;;;;;3.60;2.60;;;9.70;47.60;;;;;;5051255;28;20164;-67
2020/12/12 12:00:56;;;;;;;3.77;3.40;;;9.70;48.00;;;;;;5051270;28;20414;-66
2020/12/12 12:03:21;;;;;;;2.93;2.73;;;9.80;48.50;;;;;;5050800;28;20196;-66
2020/12/12 12:05:49;;;;;;;4.17;3.77;;;10.00;46.40;;;;;;5050630;28;20403;-68
2020/12/12 12:08:28;;;;;;;3.40;3.20;;;10.10;46.80;;;;;;5051008;28;20208;-67
2020/12/12 12:13:38;;;;;;;3.30;3.10;;;10.20;45.60;;;;;;5051061;28;20603;-66
2020/12/12 12:16:04;;;;;;;3.57;3.33;;;10.10;45.60;;;;;;5050164;28;20533;-67
2020/12/12 12:18:29;;;;;;;3.13;2.90;;;10.00;46.10;;;;;;5050796;28;20537;-66
2020/12/12 12:21:00;;;;;;;4.03;3.60;;;10.10;45.70;;;;;;5049488;28;20414;-68
2020/12/12 12:23:26;;;;;;;4.33;3.80;;;10.10;46.20;;;;;;5050871;28;20212;-69
2020/12/12 12:25:52;;;;;;;4.10;3.70;;;10.10;46.50;;;;;;5050629;28;20501;-67
2020/12/12 12:28:18;;;;;;;3.63;3.40;;;10.10;45.70;;;;;;5050289;28;20473;-67
2020/12/12 12:30:45;;;;;;;3.87;2.87;;;10.10;46.70;;;;;;5050649;28;21090;-68
2020/12/12 12:33:11;;;;;;;12.70;10.20;;;10.10;46.20;;;;;;5050537;28;20442;-69
2020/12/12 12:35:36;;;;;;;5.50;5.00;;;10.20;46.70;;;;;;5050571;28;20458;-67
2020/12/12 12:38:02;;;;;;;3.80;3.50;;;10.30;46.40;;;;;;5050414;28;20211;-66
2020/12/12 12:40:27;;;;;;;4.80;3.43;;;10.40;46.30;;;;;;5050435;28;20175;-67
2020/12/12 12:42:53;;;;;;;3.93;3.40;;;10.50;46.20;;;;;;5050280;28;20422;-67
2020/12/12 12:45:18;;;;;;;3.60;3.30;;;10.40;46.50;;;;;;5050529;28;20356;-68
2020/12/12 12:47:44;;;;;;;4.77;4.37;;;10.40;45.30;;;;;;5050167;28;20176;-68
2020/12/12 12:50:13;;;;;;;5.50;4.77;;;10.40;45.80;;;;;;5050348;28;20184;-67
2020/12/12 12:52:39;;;;;;;3.57;3.37;;;10.40;46.90;;;;;;5050263;28;20257;-68
2020/12/12 12:55:06;;;;;;;3.80;3.50;;;10.50;45.60;;;;;;5050003;28;20458;-67
2020/12/12 12:57:32;;;;;;;4.87;4.37;;;10.40;45.00;;;;;;5049794;28;20295;-68
2020/12/12 12:59:57;;;;;;;4.33;4.03;;;10.20;46.20;;;;;;5049968;28;20415;-68
2020/12/12 13:02:23;;;;;;;5.03;4.43;;;10.10;46.20;;;;;;5049589;28;20429;-68
2020/12/12 13:04:48;;;;;;;4.73;4.33;;;10.20;45.90;;;;;;5049828;28;20172;-69
2020/12/12 13:07:14;;;;;;;3.97;3.67;;;10.30;46.10;;;;;;5049911;28;20191;-68
2020/12/12 13:09:39;;;;;;;4.43;4.13;;;10.40;45.40;;;;;;5049681;28;20575;-68
2020/12/12 13:12:05;;;;;;;4.17;3.87;;;10.40;46.60;;;;;;5049410;28;20689;-66
2020/12/12 13:14:30;;;;;;;4.53;4.03;;;10.40;45.60;;;;;;5049839;28;20211;-67